sensor_id;sensor_type;location;lat;lon;timestamp;P1;durP1;ratioP1;P2;durP2;ratioP2
69188;SDS011;56302;52.322;5.926;2022-12-15T00:02:24;18.17;;;7.53;;
69188;SDS011;56302;52.322;5.926;2022-12-15T00:05:08;20.48;;;8.15;;
69188;SDS011;56302;52.322;5.926;2022-12-15T00:07:52;17.02;;;7.82;;
69188;SDS011;56302;52.322;5.926;2022-12-15T00:10:36;18.55;;;7.65;;
69188;SDS011;56302;52.322;5.926;2022-12-15T00:13:21;16.63;;;8.07;;
69188;SDS011;56302;52.322;5.926;2022-12-15T00:16:05;17.77;;;7.43;;
69188;SDS011;56302;52.322;5.926;2022-12-15T00:18:49;18.63;;;8.02;;
69188;SDS011;56302;52.322;5.926;2022-12-15T00:21:33;17.15;;;7.30;;
69188;SDS011;56302;52.322;5.926;2022-12-15T00:24:18;16.98;;;8.07;;
69188;SDS011;56302;52.322;5.926;2022-12-15T00:27:02;19.75;;;7.30;;
69188;SDS011;56302;52.322;5.926;2022-12-15T00:29:46;14.20;;;7.17;;
69188;SDS011;56302;52.322;5.926;2022-12-15T00:32:31;14.73;;;6.85;;
69188;SDS011;56302;52.322;5.926;2022-12-15T00:35:15;17.73;;;7.80;;
69188;SDS011;56302;52.322;5.926;2022-12-15T00:38:06;14.60;;;7.68;;
69188;SDS011;56302;52.322;5.926;2022-12-15T00:40:52;14.50;;;7.03;;
69188;SDS011;56302;52.322;5.926;2022-12-15T00:43:22;15.73;;;7.70;;
69188;SDS011;56302;52.322;5.926;2022-12-15T00:45:48;16.27;;;7.68;;
69188;SDS011;56302;52.322;5.926;2022-12-15T00:48:33;18.17;;;7.85;;
69188;SDS011;56302;52.322;5.926;2022-12-15T00:50:58;17.00;;;7.60;;
69188;SDS011;56302;52.322;5.926;2022-12-15T00:53:24;17.17;;;7.00;;
69188;SDS011;56302;52.322;5.926;2022-12-15T00:56:08;14.37;;;7.30;;
69188;SDS011;56302;52.322;5.926;2022-12-15T00:58:53;16.70;;;7.90;;
69188;SDS011;56302;52.322;5.926;2022-12-15T01:01:38;14.38;;;7.25;;
69188;SDS011;56302;52.322;5.926;2022-12-15T01:04:22;14.65;;;6.65;;
69188;SDS011;56302;52.322;5.926;2022-12-15T01:07:06;16.40;;;7.45;;
69188;SDS011;56302;52.322;5.926;2022-12-15T01:09:50;16.37;;;7.03;;
69188;SDS011;56302;52.322;5.926;2022-12-15T01:12:34;17.60;;;7.68;;
69188;SDS011;56302;52.322;5.926;2022-12-15T01:15:18;18.35;;;7.35;;
69188;SDS011;56302;52.322;5.926;2022-12-15T01:18:02;17.55;;;7.47;;
69188;SDS011;56302;52.322;5.926;2022-12-15T01:20:54;15.70;;;7.53;;
69188;SDS011;56302;52.322;5.926;2022-12-15T01:23:20;14.83;;;7.23;;
69188;SDS011;56302;52.322;5.926;2022-12-15T01:25:46;18.60;;;8.13;;
69188;SDS011;56302;52.322;5.926;2022-12-15T01:28:14;13.73;;;7.13;;
69188;SDS011;56302;52.322;5.926;2022-12-15T01:30:39;17.65;;;8.68;;
69188;SDS011;56302;52.322;5.926;2022-12-15T01:33:05;15.90;;;8.20;;
69188;SDS011;56302;52.322;5.926;2022-12-15T01:35:30;15.40;;;7.67;;
69188;SDS011;56302;52.322;5.926;2022-12-15T01:37:56;17.67;;;8.52;;
69188;SDS011;56302;52.322;5.926;2022-12-15T01:40:21;17.07;;;7.70;;
69188;SDS011;56302;52.322;5.926;2022-12-15T01:43:10;16.25;;;6.90;;
69188;SDS011;56302;52.322;5.926;2022-12-15T01:45:58;20.17;;;7.82;;
69188;SDS011;56302;52.322;5.926;2022-12-15T01:48:34;16.30;;;6.83;;
69188;SDS011;56302;52.322;5.926;2022-12-15T01:51:40;19.38;;;6.85;;
69188;SDS011;56302;52.322;5.926;2022-12-15T01:54:11;17.42;;;7.70;;
69188;SDS011;56302;52.322;5.926;2022-12-15T01:56:42;13.25;;;7.15;;
69188;SDS011;56302;52.322;5.926;2022-12-15T01:59:13;14.90;;;7.18;;
69188;SDS011;56302;52.322;5.926;2022-12-15T02:01:46;18.63;;;7.23;;
69188;SDS011;56302;52.322;5.926;2022-12-15T02:04:12;16.05;;;7.57;;
69188;SDS011;56302;52.322;5.926;2022-12-15T02:06:40;20.42;;;9.07;;
69188;SDS011;56302;52.322;5.926;2022-12-15T02:09:05;18.13;;;7.40;;
69188;SDS011;56302;52.322;5.926;2022-12-15T02:14:34;16.73;;;6.90;;
69188;SDS011;56302;52.322;5.926;2022-12-15T02:25:32;17.08;;;8.15;;
69188;SDS011;56302;52.322;5.926;2022-12-15T02:31:20;16.95;;;7.55;;
69188;SDS011;56302;52.322;5.926;2022-12-15T02:37:31;18.17;;;8.15;;
69188;SDS011;56302;52.322;5.926;2022-12-15T02:39:59;21.38;;;7.78;;
69188;SDS011;56302;52.322;5.926;2022-12-15T02:42:25;17.77;;;8.60;;
69188;SDS011;56302;52.322;5.926;2022-12-15T02:44:55;18.37;;;8.17;;
69188;SDS011;56302;52.322;5.926;2022-12-15T02:47:26;19.17;;;8.27;;
69188;SDS011;56302;52.322;5.926;2022-12-15T02:50:26;18.13;;;7.95;;
69188;SDS011;56302;52.322;5.926;2022-12-15T02:53:10;17.27;;;7.82;;
69188;SDS011;56302;52.322;5.926;2022-12-15T02:55:56;20.55;;;8.25;;
69188;SDS011;56302;52.322;5.926;2022-12-15T02:58:47;21.20;;;8.63;;
69188;SDS011;56302;52.322;5.926;2022-12-15T03:01:26;14.38;;;7.68;;
69188;SDS011;56302;52.322;5.926;2022-12-15T03:03:58;19.65;;;8.73;;
69188;SDS011;56302;52.322;5.926;2022-12-15T03:06:27;18.67;;;8.07;;
69188;SDS011;56302;52.322;5.926;2022-12-15T03:08:53;18.17;;;8.50;;
69188;SDS011;56302;52.322;5.926;2022-12-15T03:11:18;15.63;;;8.10;;
69188;SDS011;56302;52.322;5.926;2022-12-15T03:13:44;16.50;;;7.97;;
69188;SDS011;56302;52.322;5.926;2022-12-15T03:16:10;17.77;;;8.07;;
69188;SDS011;56302;52.322;5.926;2022-12-15T03:18:36;18.43;;;8.00;;
69188;SDS011;56302;52.322;5.926;2022-12-15T03:21:01;17.73;;;8.77;;
69188;SDS011;56302;52.322;5.926;2022-12-15T03:23:27;17.25;;;7.72;;
69188;SDS011;56302;52.322;5.926;2022-12-15T03:25:52;17.87;;;8.17;;
69188;SDS011;56302;52.322;5.926;2022-12-15T03:28:19;18.48;;;8.25;;
69188;SDS011;56302;52.322;5.926;2022-12-15T03:30:45;16.47;;;7.83;;
69188;SDS011;56302;52.322;5.926;2022-12-15T03:33:12;16.65;;;7.75;;
69188;SDS011;56302;52.322;5.926;2022-12-15T03:35:38;15.67;;;8.13;;
69188;SDS011;56302;52.322;5.926;2022-12-15T03:38:03;19.73;;;8.13;;
69188;SDS011;56302;52.322;5.926;2022-12-15T03:40:29;16.73;;;8.20;;
69188;SDS011;56302;52.322;5.926;2022-12-15T03:42:54;16.23;;;7.60;;
69188;SDS011;56302;52.322;5.926;2022-12-15T03:45:21;16.25;;;7.35;;
69188;SDS011;56302;52.322;5.926;2022-12-15T03:47:49;17.80;;;7.80;;
69188;SDS011;56302;52.322;5.926;2022-12-15T03:50:17;15.57;;;7.95;;
69188;SDS011;56302;52.322;5.926;2022-12-15T03:52:44;15.30;;;7.47;;
69188;SDS011;56302;52.322;5.926;2022-12-15T03:55:13;15.90;;;8.15;;
69188;SDS011;56302;52.322;5.926;2022-12-15T03:57:40;17.98;;;8.27;;
69188;SDS011;56302;52.322;5.926;2022-12-15T04:00:06;16.83;;;7.00;;
69188;SDS011;56302;52.322;5.926;2022-12-15T04:02:32;14.02;;;6.88;;
69188;SDS011;56302;52.322;5.926;2022-12-15T04:04:57;18.48;;;7.30;;
69188;SDS011;56302;52.322;5.926;2022-12-15T04:07:23;15.00;;;6.87;;
69188;SDS011;56302;52.322;5.926;2022-12-15T04:09:48;14.20;;;7.53;;
69188;SDS011;56302;52.322;5.926;2022-12-15T04:12:14;17.07;;;7.43;;
69188;SDS011;56302;52.322;5.926;2022-12-15T04:14:39;17.05;;;6.38;;
69188;SDS011;56302;52.322;5.926;2022-12-15T04:17:07;13.70;;;6.97;;
69188;SDS011;56302;52.322;5.926;2022-12-15T04:19:34;14.82;;;6.38;;
69188;SDS011;56302;52.322;5.926;2022-12-15T04:22:18;15.20;;;6.95;;
69188;SDS011;56302;52.322;5.926;2022-12-15T04:24:44;14.57;;;6.90;;
69188;SDS011;56302;52.322;5.926;2022-12-15T04:27:28;15.27;;;6.85;;
69188;SDS011;56302;52.322;5.926;2022-12-15T04:30:12;14.02;;;6.53;;
69188;SDS011;56302;52.322;5.926;2022-12-15T04:32:57;13.07;;;6.15;;
69188;SDS011;56302;52.322;5.926;2022-12-15T04:35:41;13.77;;;6.47;;
69188;SDS011;56302;52.322;5.926;2022-12-15T04:38:26;15.73;;;7.07;;
69188;SDS011;56302;52.322;5.926;2022-12-15T04:41:10;14.00;;;6.10;;
69188;SDS011;56302;52.322;5.926;2022-12-15T04:43:55;15.15;;;6.53;;
69188;SDS011;56302;52.322;5.926;2022-12-15T04:46:39;14.95;;;6.57;;
69188;SDS011;56302;52.322;5.926;2022-12-15T04:49:23;14.95;;;6.72;;
69188;SDS011;56302;52.322;5.926;2022-12-15T04:52:07;14.27;;;7.27;;
69188;SDS011;56302;52.322;5.926;2022-12-15T04:54:51;12.73;;;6.68;;
69188;SDS011;56302;52.322;5.926;2022-12-15T04:57:35;15.23;;;6.93;;
69188;SDS011;56302;52.322;5.926;2022-12-15T05:00:19;15.80;;;6.80;;
69188;SDS011;56302;52.322;5.926;2022-12-15T05:03:06;16.75;;;7.03;;
69188;SDS011;56302;52.322;5.926;2022-12-15T05:05:51;19.17;;;7.30;;
69188;SDS011;56302;52.322;5.926;2022-12-15T05:08:35;15.43;;;7.30;;
69188;SDS011;56302;52.322;5.926;2022-12-15T05:11:19;15.13;;;7.22;;
69188;SDS011;56302;52.322;5.926;2022-12-15T05:14:04;12.90;;;6.57;;
69188;SDS011;56302;52.322;5.926;2022-12-15T05:16:48;15.77;;;7.50;;
69188;SDS011;56302;52.322;5.926;2022-12-15T05:19:32;18.40;;;7.47;;
69188;SDS011;56302;52.322;5.926;2022-12-15T05:22:16;19.48;;;8.00;;
69188;SDS011;56302;52.322;5.926;2022-12-15T05:25:00;14.48;;;7.15;;
69188;SDS011;56302;52.322;5.926;2022-12-15T05:27:44;16.27;;;8.02;;
69188;SDS011;56302;52.322;5.926;2022-12-15T05:30:28;15.82;;;7.60;;
69188;SDS011;56302;52.322;5.926;2022-12-15T05:33:12;20.80;;;7.40;;
69188;SDS011;56302;52.322;5.926;2022-12-15T05:35:38;16.30;;;8.02;;
69188;SDS011;56302;52.322;5.926;2022-12-15T05:38:04;17.47;;;7.93;;
69188;SDS011;56302;52.322;5.926;2022-12-15T05:40:29;15.55;;;7.75;;
69188;SDS011;56302;52.322;5.926;2022-12-15T05:42:58;16.60;;;7.73;;
69188;SDS011;56302;52.322;5.926;2022-12-15T05:45:25;16.20;;;8.35;;
69188;SDS011;56302;52.322;5.926;2022-12-15T05:47:51;15.40;;;7.00;;
69188;SDS011;56302;52.322;5.926;2022-12-15T05:50:17;18.93;;;7.50;;
69188;SDS011;56302;52.322;5.926;2022-12-15T05:52:43;15.40;;;7.18;;
69188;SDS011;56302;52.322;5.926;2022-12-15T05:55:08;15.73;;;7.50;;
69188;SDS011;56302;52.322;5.926;2022-12-15T05:57:34;16.00;;;7.27;;
69188;SDS011;56302;52.322;5.926;2022-12-15T05:59:59;17.47;;;7.30;;
69188;SDS011;56302;52.322;5.926;2022-12-15T06:02:27;18.23;;;7.25;;
69188;SDS011;56302;52.322;5.926;2022-12-15T06:04:53;14.57;;;7.03;;
69188;SDS011;56302;52.322;5.926;2022-12-15T06:07:18;18.33;;;7.85;;
69188;SDS011;56302;52.322;5.926;2022-12-15T06:09:44;18.33;;;7.93;;
69188;SDS011;56302;52.322;5.926;2022-12-15T06:12:09;17.65;;;7.38;;
69188;SDS011;56302;52.322;5.926;2022-12-15T06:14:35;19.60;;;7.87;;
69188;SDS011;56302;52.322;5.926;2022-12-15T06:17:01;18.40;;;7.53;;
69188;SDS011;56302;52.322;5.926;2022-12-15T06:19:26;14.38;;;6.80;;
69188;SDS011;56302;52.322;5.926;2022-12-15T06:21:52;18.05;;;7.72;;
69188;SDS011;56302;52.322;5.926;2022-12-15T06:24:17;14.87;;;7.07;;
69188;SDS011;56302;52.322;5.926;2022-12-15T06:26:43;14.00;;;7.90;;
69188;SDS011;56302;52.322;5.926;2022-12-15T06:29:09;18.30;;;7.60;;
69188;SDS011;56302;52.322;5.926;2022-12-15T06:31:36;16.83;;;7.32;;
69188;SDS011;56302;52.322;5.926;2022-12-15T06:34:03;14.80;;;6.93;;
69188;SDS011;56302;52.322;5.926;2022-12-15T06:36:30;17.92;;;7.82;;
69188;SDS011;56302;52.322;5.926;2022-12-15T06:38:59;16.17;;;7.35;;
69188;SDS011;56302;52.322;5.926;2022-12-15T06:41:25;12.27;;;6.37;;
69188;SDS011;56302;52.322;5.926;2022-12-15T06:43:53;15.63;;;6.97;;
69188;SDS011;56302;52.322;5.926;2022-12-15T06:46:20;18.55;;;7.53;;
69188;SDS011;56302;52.322;5.926;2022-12-15T06:48:46;11.70;;;6.72;;
69188;SDS011;56302;52.322;5.926;2022-12-15T06:51:12;18.90;;;6.97;;
69188;SDS011;56302;52.322;5.926;2022-12-15T06:53:39;15.25;;;7.10;;
69188;SDS011;56302;52.322;5.926;2022-12-15T06:56:07;15.40;;;6.10;;
69188;SDS011;56302;52.322;5.926;2022-12-15T06:58:38;17.40;;;6.63;;
69188;SDS011;56302;52.322;5.926;2022-12-15T07:01:04;14.80;;;6.70;;
69188;SDS011;56302;52.322;5.926;2022-12-15T07:03:32;15.00;;;6.78;;
69188;SDS011;56302;52.322;5.926;2022-12-15T07:06:02;15.13;;;7.10;;
69188;SDS011;56302;52.322;5.926;2022-12-15T07:08:29;13.07;;;6.93;;
69188;SDS011;56302;52.322;5.926;2022-12-15T07:10:55;15.73;;;7.20;;
69188;SDS011;56302;52.322;5.926;2022-12-15T07:13:21;14.70;;;7.00;;
69188;SDS011;56302;52.322;5.926;2022-12-15T07:15:46;14.45;;;7.05;;
69188;SDS011;56302;52.322;5.926;2022-12-15T07:18:14;16.90;;;8.03;;
69188;SDS011;56302;52.322;5.926;2022-12-15T07:20:40;14.60;;;7.00;;
69188;SDS011;56302;52.322;5.926;2022-12-15T07:23:06;15.50;;;7.30;;
69188;SDS011;56302;52.322;5.926;2022-12-15T07:25:36;15.15;;;7.72;;
69188;SDS011;56302;52.322;5.926;2022-12-15T07:28:03;17.80;;;8.03;;
69188;SDS011;56302;52.322;5.926;2022-12-15T07:30:29;18.10;;;7.70;;
69188;SDS011;56302;52.322;5.926;2022-12-15T07:32:56;18.05;;;7.57;;
69188;SDS011;56302;52.322;5.926;2022-12-15T07:35:21;13.70;;;7.43;;
69188;SDS011;56302;52.322;5.926;2022-12-15T07:37:47;15.63;;;7.93;;
69188;SDS011;56302;52.322;5.926;2022-12-15T07:40:12;16.40;;;7.87;;
69188;SDS011;56302;52.322;5.926;2022-12-15T07:42:38;16.93;;;7.87;;
69188;SDS011;56302;52.322;5.926;2022-12-15T07:45:03;18.35;;;8.35;;
69188;SDS011;56302;52.322;5.926;2022-12-15T07:47:30;18.83;;;8.30;;
69188;SDS011;56302;52.322;5.926;2022-12-15T07:49:56;15.18;;;7.40;;
69188;SDS011;56302;52.322;5.926;2022-12-15T07:52:22;15.73;;;7.53;;
69188;SDS011;56302;52.322;5.926;2022-12-15T07:54:48;15.45;;;8.02;;
69188;SDS011;56302;52.322;5.926;2022-12-15T07:57:14;14.30;;;7.32;;
69188;SDS011;56302;52.322;5.926;2022-12-15T07:59:40;14.95;;;7.88;;
69188;SDS011;56302;52.322;5.926;2022-12-15T08:02:06;16.90;;;7.82;;
69188;SDS011;56302;52.322;5.926;2022-12-15T08:04:33;16.55;;;7.07;;
69188;SDS011;56302;52.322;5.926;2022-12-15T08:06:58;14.70;;;7.30;;
69188;SDS011;56302;52.322;5.926;2022-12-15T08:09:24;14.47;;;7.07;;
69188;SDS011;56302;52.322;5.926;2022-12-15T08:11:49;15.88;;;7.28;;
69188;SDS011;56302;52.322;5.926;2022-12-15T08:14:15;17.77;;;7.68;;
69188;SDS011;56302;52.322;5.926;2022-12-15T08:16:41;16.83;;;6.75;;
69188;SDS011;56302;52.322;5.926;2022-12-15T08:19:09;15.53;;;6.87;;
69188;SDS011;56302;52.322;5.926;2022-12-15T08:21:36;16.70;;;7.60;;
69188;SDS011;56302;52.322;5.926;2022-12-15T08:24:06;18.58;;;7.43;;
69188;SDS011;56302;52.322;5.926;2022-12-15T08:26:33;18.27;;;7.80;;
69188;SDS011;56302;52.322;5.926;2022-12-15T08:29:01;15.23;;;8.03;;
69188;SDS011;56302;52.322;5.926;2022-12-15T08:31:28;16.85;;;7.35;;
69188;SDS011;56302;52.322;5.926;2022-12-15T08:33:55;16.88;;;7.68;;
69188;SDS011;56302;52.322;5.926;2022-12-15T08:36:21;16.52;;;6.93;;
69188;SDS011;56302;52.322;5.926;2022-12-15T08:38:47;16.77;;;7.53;;
69188;SDS011;56302;52.322;5.926;2022-12-15T08:41:15;15.40;;;7.25;;
69188;SDS011;56302;52.322;5.926;2022-12-15T08:43:43;13.38;;;7.72;;
69188;SDS011;56302;52.322;5.926;2022-12-15T08:46:10;15.70;;;7.90;;
69188;SDS011;56302;52.322;5.926;2022-12-15T08:48:36;19.98;;;7.60;;
69188;SDS011;56302;52.322;5.926;2022-12-15T08:51:02;14.48;;;7.47;;
69188;SDS011;56302;52.322;5.926;2022-12-15T08:53:28;16.57;;;7.30;;
69188;SDS011;56302;52.322;5.926;2022-12-15T08:55:54;17.42;;;7.28;;
69188;SDS011;56302;52.322;5.926;2022-12-15T08:58:19;15.20;;;7.17;;
69188;SDS011;56302;52.322;5.926;2022-12-15T09:00:45;19.33;;;8.07;;
69188;SDS011;56302;52.322;5.926;2022-12-15T09:03:11;15.23;;;7.00;;
69188;SDS011;56302;52.322;5.926;2022-12-15T09:05:37;18.93;;;8.33;;
69188;SDS011;56302;52.322;5.926;2022-12-15T09:08:03;17.77;;;7.85;;
69188;SDS011;56302;52.322;5.926;2022-12-15T09:10:29;19.42;;;8.40;;
69188;SDS011;56302;52.322;5.926;2022-12-15T09:12:55;14.60;;;8.07;;
69188;SDS011;56302;52.322;5.926;2022-12-15T09:15:20;17.30;;;8.32;;
69188;SDS011;56302;52.322;5.926;2022-12-15T09:17:46;16.00;;;6.80;;
69188;SDS011;56302;52.322;5.926;2022-12-15T09:20:12;16.02;;;7.75;;
69188;SDS011;56302;52.322;5.926;2022-12-15T09:22:38;16.63;;;8.35;;
69188;SDS011;56302;52.322;5.926;2022-12-15T09:25:05;16.75;;;7.88;;
69188;SDS011;56302;52.322;5.926;2022-12-15T09:27:30;18.40;;;7.90;;
69188;SDS011;56302;52.322;5.926;2022-12-15T09:29:56;21.37;;;8.53;;
69188;SDS011;56302;52.322;5.926;2022-12-15T09:32:22;18.92;;;7.90;;
69188;SDS011;56302;52.322;5.926;2022-12-15T09:34:51;16.50;;;7.87;;
69188;SDS011;56302;52.322;5.926;2022-12-15T09:37:17;16.10;;;7.90;;
69188;SDS011;56302;52.322;5.926;2022-12-15T09:39:43;17.08;;;8.73;;
69188;SDS011;56302;52.322;5.926;2022-12-15T09:42:21;16.87;;;8.23;;
69188;SDS011;56302;52.322;5.926;2022-12-15T09:44:49;16.52;;;8.35;;
69188;SDS011;56302;52.322;5.926;2022-12-15T09:50:22;16.98;;;9.25;;
69188;SDS011;56302;52.322;5.926;2022-12-15T09:53:09;15.73;;;9.10;;
69188;SDS011;56302;52.322;5.926;2022-12-15T09:55:38;17.42;;;9.80;;
69188;SDS011;56302;52.322;5.926;2022-12-15T10:01:09;17.75;;;9.27;;
69188;SDS011;56302;52.322;5.926;2022-12-15T10:04:40;18.17;;;9.03;;
69188;SDS011;56302;52.322;5.926;2022-12-15T10:07:02;16.55;;;9.00;;
69188;SDS011;56302;52.322;5.926;2022-12-15T10:09:51;15.10;;;8.18;;
69188;SDS011;56302;52.322;5.926;2022-12-15T10:12:19;15.67;;;8.20;;
69188;SDS011;56302;52.322;5.926;2022-12-15T10:17:21;15.70;;;8.02;;
69188;SDS011;56302;52.322;5.926;2022-12-15T10:19:52;18.08;;;8.25;;
69188;SDS011;56302;52.322;5.926;2022-12-15T10:22:23;13.77;;;8.23;;
69188;SDS011;56302;52.322;5.926;2022-12-15T10:24:51;17.63;;;8.30;;
69188;SDS011;56302;52.322;5.926;2022-12-15T10:30:02;19.00;;;8.75;;
69188;SDS011;56302;52.322;5.926;2022-12-15T10:35:15;18.50;;;10.02;;
69188;SDS011;56302;52.322;5.926;2022-12-15T10:37:45;20.07;;;10.00;;
69188;SDS011;56302;52.322;5.926;2022-12-15T10:40:14;14.73;;;8.57;;
69188;SDS011;56302;52.322;5.926;2022-12-15T10:42:47;17.88;;;9.02;;
69188;SDS011;56302;52.322;5.926;2022-12-15T10:45:29;17.77;;;9.40;;
69188;SDS011;56302;52.322;5.926;2022-12-15T10:48:02;16.23;;;8.70;;
69188;SDS011;56302;52.322;5.926;2022-12-15T10:50:31;18.52;;;9.20;;
69188;SDS011;56302;52.322;5.926;2022-12-15T10:52:58;17.70;;;9.20;;
69188;SDS011;56302;52.322;5.926;2022-12-15T10:55:35;21.13;;;9.05;;
69188;SDS011;56302;52.322;5.926;2022-12-15T10:58:04;17.17;;;9.40;;
69188;SDS011;56302;52.322;5.926;2022-12-15T11:00:42;16.00;;;8.53;;
69188;SDS011;56302;52.322;5.926;2022-12-15T11:03:23;17.75;;;8.40;;
69188;SDS011;56302;52.322;5.926;2022-12-15T11:05:51;16.27;;;8.45;;
69188;SDS011;56302;52.322;5.926;2022-12-15T11:08:18;19.48;;;8.85;;
69188;SDS011;56302;52.322;5.926;2022-12-15T11:10:56;16.40;;;8.52;;
69188;SDS011;56302;52.322;5.926;2022-12-15T11:13:41;18.20;;;8.30;;
69188;SDS011;56302;52.322;5.926;2022-12-15T11:16:27;15.77;;;8.27;;
69188;SDS011;56302;52.322;5.926;2022-12-15T11:19:03;17.83;;;7.35;;
69188;SDS011;56302;52.322;5.926;2022-12-15T11:21:38;15.07;;;7.65;;
69188;SDS011;56302;52.322;5.926;2022-12-15T11:26:59;15.83;;;6.87;;
69188;SDS011;56302;52.322;5.926;2022-12-15T11:29:45;15.00;;;6.30;;
69188;SDS011;56302;52.322;5.926;2022-12-15T11:32:13;15.73;;;6.35;;
69188;SDS011;56302;52.322;5.926;2022-12-15T11:34:43;15.77;;;7.05;;
69188;SDS011;56302;52.322;5.926;2022-12-15T11:37:12;13.93;;;7.20;;
69188;SDS011;56302;52.322;5.926;2022-12-15T11:40:11;13.87;;;7.20;;
69188;SDS011;56302;52.322;5.926;2022-12-15T11:45:16;20.23;;;8.10;;
69188;SDS011;56302;52.322;5.926;2022-12-15T11:47:47;14.07;;;7.35;;
69188;SDS011;56302;52.322;5.926;2022-12-15T11:53:00;15.77;;;8.17;;
69188;SDS011;56302;52.322;5.926;2022-12-15T11:55:52;15.30;;;7.65;;
69188;SDS011;56302;52.322;5.926;2022-12-15T11:58:44;14.35;;;7.53;;
69188;SDS011;56302;52.322;5.926;2022-12-15T12:01:42;15.55;;;8.15;;
69188;SDS011;56302;52.322;5.926;2022-12-15T12:04:19;16.45;;;8.35;;
69188;SDS011;56302;52.322;5.926;2022-12-15T12:07:00;14.13;;;7.70;;
69188;SDS011;56302;52.322;5.926;2022-12-15T12:09:59;16.15;;;8.18;;
69188;SDS011;56302;52.322;5.926;2022-12-15T12:12:55;16.00;;;8.52;;
69188;SDS011;56302;52.322;5.926;2022-12-15T12:15:30;14.75;;;8.10;;
69188;SDS011;56302;52.322;5.926;2022-12-15T12:18:29;15.25;;;7.45;;
69188;SDS011;56302;52.322;5.926;2022-12-15T12:21:07;16.17;;;8.13;;
69188;SDS011;56302;52.322;5.926;2022-12-15T12:26:11;15.55;;;8.25;;
69188;SDS011;56302;52.322;5.926;2022-12-15T12:31:20;19.58;;;8.70;;
69188;SDS011;56302;52.322;5.926;2022-12-15T12:34:02;16.30;;;8.20;;
69188;SDS011;56302;52.322;5.926;2022-12-15T12:36:40;19.63;;;8.95;;
69188;SDS011;56302;52.322;5.926;2022-12-15T12:39:12;20.27;;;9.25;;
69188;SDS011;56302;52.322;5.926;2022-12-15T12:42:19;15.57;;;7.75;;
69188;SDS011;56302;52.322;5.926;2022-12-15T12:44:39;17.00;;;8.60;;
69188;SDS011;56302;52.322;5.926;2022-12-15T12:47:07;17.67;;;9.00;;
69188;SDS011;56302;52.322;5.926;2022-12-15T12:49:47;18.15;;;8.73;;
69188;SDS011;56302;52.322;5.926;2022-12-15T12:52:22;18.05;;;9.05;;
69188;SDS011;56302;52.322;5.926;2022-12-15T12:55:01;14.45;;;8.63;;
69188;SDS011;56302;52.322;5.926;2022-12-15T12:57:38;15.43;;;8.20;;
69188;SDS011;56302;52.322;5.926;2022-12-15T13:03:12;15.50;;;8.63;;
69188;SDS011;56302;52.322;5.926;2022-12-15T13:05:40;18.13;;;9.80;;
69188;SDS011;56302;52.322;5.926;2022-12-15T13:10:34;16.00;;;9.07;;
69188;SDS011;56302;52.322;5.926;2022-12-15T13:15:57;17.90;;;9.33;;
69188;SDS011;56302;52.322;5.926;2022-12-15T13:21:45;18.30;;;10.23;;
69188;SDS011;56302;52.322;5.926;2022-12-15T13:26:49;18.02;;;9.55;;
69188;SDS011;56302;52.322;5.926;2022-12-15T13:29:15;17.23;;;9.20;;
69188;SDS011;56302;52.322;5.926;2022-12-15T13:31:47;20.65;;;10.05;;
69188;SDS011;56302;52.322;5.926;2022-12-15T13:34:14;17.38;;;9.27;;
69188;SDS011;56302;52.322;5.926;2022-12-15T13:36:43;18.67;;;9.77;;
69188;SDS011;56302;52.322;5.926;2022-12-15T13:41:35;18.38;;;10.27;;
69188;SDS011;56302;52.322;5.926;2022-12-15T13:44:01;18.13;;;10.43;;
69188;SDS011;56302;52.322;5.926;2022-12-15T13:46:39;16.25;;;9.55;;
69188;SDS011;56302;52.322;5.926;2022-12-15T13:49:14;22.08;;;9.45;;
69188;SDS011;56302;52.322;5.926;2022-12-15T13:51:45;18.77;;;10.57;;
69188;SDS011;56302;52.322;5.926;2022-12-15T13:54:12;18.37;;;10.57;;
69188;SDS011;56302;52.322;5.926;2022-12-15T13:56:45;16.92;;;9.75;;
69188;SDS011;56302;52.322;5.926;2022-12-15T13:59:34;19.17;;;10.07;;
69188;SDS011;56302;52.322;5.926;2022-12-15T14:02:23;21.53;;;10.80;;
69188;SDS011;56302;52.322;5.926;2022-12-15T14:05:11;18.77;;;10.15;;
69188;SDS011;56302;52.322;5.926;2022-12-15T14:10:21;20.08;;;10.75;;
69188;SDS011;56302;52.322;5.926;2022-12-15T14:12:56;20.77;;;11.32;;
69188;SDS011;56302;52.322;5.926;2022-12-15T14:15:29;21.47;;;11.33;;
69188;SDS011;56302;52.322;5.926;2022-12-15T14:17:57;23.05;;;11.50;;
69188;SDS011;56302;52.322;5.926;2022-12-15T14:20:26;22.70;;;11.45;;
69188;SDS011;56302;52.322;5.926;2022-12-15T14:22:53;19.92;;;11.82;;
69188;SDS011;56302;52.322;5.926;2022-12-15T14:25:23;21.67;;;12.80;;
69188;SDS011;56302;52.322;5.926;2022-12-15T14:27:50;22.73;;;11.88;;
69188;SDS011;56302;52.322;5.926;2022-12-15T14:35:35;24.83;;;12.35;;
69188;SDS011;56302;52.322;5.926;2022-12-15T14:38:15;26.83;;;13.38;;
69188;SDS011;56302;52.322;5.926;2022-12-15T14:40:44;26.70;;;13.30;;
69188;SDS011;56302;52.322;5.926;2022-12-15T14:43:24;26.90;;;13.98;;
69188;SDS011;56302;52.322;5.926;2022-12-15T14:46:03;27.73;;;12.90;;
69188;SDS011;56302;52.322;5.926;2022-12-15T14:48:33;23.75;;;13.80;;
69188;SDS011;56302;52.322;5.926;2022-12-15T14:51:02;26.90;;;14.18;;
69188;SDS011;56302;52.322;5.926;2022-12-15T14:53:30;28.52;;;13.15;;
69188;SDS011;56302;52.322;5.926;2022-12-15T14:56:43;25.85;;;13.75;;
69188;SDS011;56302;52.322;5.926;2022-12-15T14:58:58;25.37;;;13.43;;
69188;SDS011;56302;52.322;5.926;2022-12-15T15:01:38;26.95;;;13.45;;
69188;SDS011;56302;52.322;5.926;2022-12-15T15:04:24;25.88;;;14.13;;
69188;SDS011;56302;52.322;5.926;2022-12-15T15:06:54;27.13;;;15.20;;
69188;SDS011;56302;52.322;5.926;2022-12-15T15:12:00;30.37;;;14.10;;
69188;SDS011;56302;52.322;5.926;2022-12-15T15:14:32;27.13;;;14.02;;
69188;SDS011;56302;52.322;5.926;2022-12-15T15:17:05;27.77;;;15.18;;
69188;SDS011;56302;52.322;5.926;2022-12-15T15:19:45;25.77;;;14.00;;
69188;SDS011;56302;52.322;5.926;2022-12-15T15:24:58;27.93;;;14.90;;
69188;SDS011;56302;52.322;5.926;2022-12-15T15:27:34;24.65;;;13.60;;
69188;SDS011;56302;52.322;5.926;2022-12-15T15:30:06;27.33;;;14.75;;
69188;SDS011;56302;52.322;5.926;2022-12-15T15:32:50;28.70;;;14.82;;
69188;SDS011;56302;52.322;5.926;2022-12-15T15:35:18;29.73;;;14.23;;
69188;SDS011;56302;52.322;5.926;2022-12-15T15:37:44;25.88;;;14.20;;
69188;SDS011;56302;52.322;5.926;2022-12-15T15:40:11;29.25;;;15.18;;
69188;SDS011;56302;52.322;5.926;2022-12-15T15:42:39;25.90;;;15.02;;
69188;SDS011;56302;52.322;5.926;2022-12-15T15:45:09;30.15;;;14.57;;
69188;SDS011;56302;52.322;5.926;2022-12-15T15:47:37;28.33;;;15.30;;
69188;SDS011;56302;52.322;5.926;2022-12-15T15:50:03;28.13;;;15.30;;
69188;SDS011;56302;52.322;5.926;2022-12-15T15:52:29;27.13;;;14.55;;
69188;SDS011;56302;52.322;5.926;2022-12-15T15:54:55;29.70;;;15.25;;
69188;SDS011;56302;52.322;5.926;2022-12-15T15:57:22;27.87;;;14.30;;
69188;SDS011;56302;52.322;5.926;2022-12-15T15:59:47;28.58;;;15.25;;
69188;SDS011;56302;52.322;5.926;2022-12-15T16:02:13;26.50;;;14.67;;
69188;SDS011;56302;52.322;5.926;2022-12-15T16:04:39;25.33;;;14.65;;
69188;SDS011;56302;52.322;5.926;2022-12-15T16:07:12;25.92;;;14.82;;
69188;SDS011;56302;52.322;5.926;2022-12-15T16:09:51;31.57;;;15.07;;
69188;SDS011;56302;52.322;5.926;2022-12-15T16:12:27;27.95;;;14.77;;
69188;SDS011;56302;52.322;5.926;2022-12-15T16:14:57;28.90;;;15.02;;
69188;SDS011;56302;52.322;5.926;2022-12-15T16:17:22;26.60;;;15.30;;
69188;SDS011;56302;52.322;5.926;2022-12-15T16:19:49;28.25;;;15.20;;
69188;SDS011;56302;52.322;5.926;2022-12-15T16:22:16;29.45;;;14.70;;